Time;durP1;ratioP1;P1;durP2;ratioP2;P2;SDS_P1;SDS_P2;PMS_P1;PMS_P2;Temp;Humidity;BMP_temperature;BMP_pressure;BME280_temperature;BME280_humidity;BME280_pressure;Samples;Min_cycle;Max_cycle;Signal;HPM_P1;HPM_P2
2023/06/25 00:03:24;;;;;;;8.57;6.10;;;20.10;90.10;;;;;;21260623;27;20626;-67
2023/06/25 00:13:26;;;;;;;7.33;5.70;;;20.00;90.50;;;;;;21261179;27;20236;-60
2023/06/25 00:23:28;;;;;;;14.00;7.30;;;19.80;91.20;;;;;;21257834;27;20207;-60
2023/06/25 00:33:32;;;;;;;12.93;6.30;;;19.70;91.70;;;;;;21238822;27;20271;-63
2023/06/25 00:43:33;;;;;;;16.73;8.63;;;19.70;92.10;;;;;;21256191;27;20210;-61
2023/06/25 00:53:35;;;;;;;10.03;6.43;;;19.40;92.40;;;;;;21255143;27;20322;-60
2023/06/25 01:03:43;;;;;;;7.97;5.50;;;19.40;92.80;;;;;;21254898;27;20252;-61
2023/06/25 01:13:45;;;;;;;8.80;6.40;;;19.30;93.20;;;;;;21253686;27;20244;-61
2023/06/25 01:23:47;;;;;;;9.30;6.60;;;19.20;93.50;;;;;;21252882;27;20235;-60
2023/06/25 01:33:49;;;;;;;7.00;5.80;;;19.10;93.90;;;;;;21252350;27;20242;-60
2023/06/25 01:43:50;;;;;;;16.77;8.90;;;19.10;94.10;;;;;;21251265;27;20198;-60
2023/06/25 01:53:52;;;;;;;6.60;5.90;;;18.80;94.40;;;;;;21250622;27;20585;-70
2023/06/25 02:03:54;;;;;;;6.97;5.93;;;18.80;94.80;;;;;;21249778;27;20209;-67
2023/06/25 02:13:56;;;;;;;7.30;5.70;;;18.80;95.00;;;;;;21249292;27;20325;-60
2023/06/25 02:23:58;;;;;;;8.23;6.40;;;18.80;95.00;;;;;;21248967;27;20564;-69
2023/06/25 02:34:00;;;;;;;7.63;6.73;;;18.40;95.20;;;;;;21248614;27;20717;-60
2023/06/25 02:44:01;;;;;;;8.27;6.00;;;18.40;95.50;;;;;;21248847;28;20199;-68
2023/06/25 02:54:03;;;;;;;7.57;6.33;;;18.40;95.80;;;;;;21255427;28;20256;-63
2023/06/25 03:04:05;;;;;;;8.33;6.10;;;18.30;95.80;;;;;;21247395;28;20300;-60
2023/06/25 03:14:06;;;;;;;9.70;6.20;;;18.20;96.10;;;;;;21207229;27;20241;-60
2023/06/25 03:24:10;;;;;;;6.77;5.93;;;18.00;96.20;;;;;;21233659;27;20658;-60
2023/06/25 03:34:12;;;;;;;7.83;6.07;;;17.90;96.40;;;;;;21194698;27;20249;-59
2023/06/25 03:47:59;;;;;;;7.23;6.27;;;;;;;;;;20984818;28;20573;-60
2023/06/25 03:58:01;;;;;;;8.13;5.93;;;17.80;96.70;;;;;;20983336;28;20216;-60
2023/06/25 04:08:03;;;;;;;10.27;6.23;;;17.80;97.10;;;;;;20974804;28;20304;-60
2023/06/25 04:18:05;;;;;;;10.77;5.50;;;17.90;96.90;;;;;;20931856;28;20301;-62
2023/06/25 04:28:16;;;;;;;8.23;5.77;;;17.90;97.30;;;;;;20898692;28;20212;-62
2023/06/25 04:38:17;;;;;;;9.47;5.83;;;18.00;97.30;;;;;;20897614;28;20233;-64
2023/06/25 04:48:19;;;;;;;6.90;5.73;;;18.10;97.40;;;;;;20897510;28;20303;-70
2023/06/25 04:58:21;;;;;;;7.53;6.10;;;18.30;97.10;;;;;;20847102;28;20239;-60
2023/06/25 05:08:23;;;;;;;7.63;6.43;;;18.50;97.20;;;;;;20840851;28;20206;-61
2023/06/25 05:18:24;;;;;;;7.13;6.17;;;18.80;97.20;;;;;;20840200;28;20231;-60
2023/06/25 05:28:26;;;;;;;9.37;6.23;;;19.10;96.70;;;;;;20839420;28;20703;-61
2023/06/25 05:38:28;;;;;;;9.37;6.67;;;19.10;96.90;;;;;;20838381;28;20240;-61
2023/06/25 05:48:29;;;;;;;8.40;6.50;;;19.30;96.50;;;;;;20838049;28;20206;-61
2023/06/25 05:58:33;;;;;;;7.67;6.30;;;19.50;96.00;;;;;;20836722;28;20246;-61
2023/06/25 06:08:35;;;;;;;11.00;6.17;;;19.90;95.50;;;;;;20835045;28;20212;-70
2023/06/25 06:18:37;;;;;;;6.57;5.87;;;20.20;94.90;;;;;;20835553;28;20690;-60
2023/06/25 06:28:38;;;;;;;8.83;6.57;;;20.50;94.30;;;;;;20834404;28;20679;-66
2023/06/25 06:38:40;;;;;;;9.60;6.33;;;20.90;93.10;;;;;;20832290;28;20232;-64
2023/06/25 06:48:43;;;;;;;7.40;6.40;;;21.10;92.90;;;;;;20833289;28;20579;-61
2023/06/25 06:58:45;;;;;;;7.10;5.53;;;21.40;92.10;;;;;;20832337;28;20238;-64
2023/06/25 07:08:47;;;;;;;7.93;5.80;;;22.10;90.10;;;;;;20831599;28;20213;-65
2023/06/25 07:18:49;;;;;;;6.87;5.17;;;22.20;90.10;;;;;;20831041;28;20260;-70
2023/06/25 07:28:51;;;;;;;14.20;5.60;;;22.60;87.80;;;;;;20830225;28;20236;-60
2023/06/25 07:38:56;;;;;;;10.30;4.93;;;22.90;85.30;;;;;;20829904;28;20725;-67
2023/06/25 07:48:58;;;;;;;6.47;4.73;;;23.30;82.70;;;;;;20830816;28;20330;-67
2023/06/25 07:59:00;;;;;;;7.73;4.70;;;23.50;80.00;;;;;;20830402;28;20779;-68
2023/06/25 08:09:03;;;;;;;7.97;6.17;;;23.80;77.80;;;;;;20942047;28;20634;-69
2023/06/25 08:19:04;;;;;;;9.80;5.10;;;24.10;75.80;;;;;;20981597;28;20234;-60
2023/06/25 08:29:06;;;;;;;6.80;4.60;;;24.30;73.40;;;;;;20917398;28;20219;-60
2023/06/25 08:39:08;;;;;;;6.87;4.50;;;24.50;71.10;;;;;;20926108;28;20699;-62
2023/06/25 08:49:10;;;;;;;6.00;4.30;;;24.70;69.30;;;;;;20925205;28;20679;-61
2023/06/25 08:59:12;;;;;;;9.07;4.30;;;24.90;66.50;;;;;;20922856;28;20717;-60
2023/06/25 09:09:13;;;;;;;5.47;3.80;;;25.10;64.20;;;;;;20923328;28;20583;-63
2023/06/25 09:19:20;;;;;;;4.43;3.80;;;25.30;61.30;;;;;;20922687;28;20238;-65
2023/06/25 09:29:22;;;;;;;5.03;4.40;;;25.50;59.70;;;;;;20934845;28;20292;-67
2023/06/25 09:39:24;;;;;;;5.33;4.03;;;25.60;59.20;;;;;;20928735;28;20235;-62
2023/06/25 09:49:30;;;;;;;6.10;4.07;;;25.80;59.10;;;;;;20920766;28;20204;-66
2023/06/25 09:59:32;;;;;;;5.90;3.97;;;26.10;58.80;;;;;;20919215;28;20274;-61
2023/06/25 10:09:33;;;;;;;4.83;4.07;;;26.20;57.60;;;;;;20918406;28;20232;-64
2023/06/25 10:19:35;;;;;;;7.47;3.90;;;26.20;57.20;;;;;;20918083;28;20745;-64
2023/06/25 10:29:41;;;;;;;5.57;3.70;;;26.30;57.00;;;;;;20917058;28;20649;-64
2023/06/25 10:39:43;;;;;;;4.83;3.73;;;26.40;56.80;;;;;;20917346;28;20330;-72
2023/06/25 10:49:44;;;;;;;4.70;3.93;;;26.50;56.30;;;;;;20914492;28;20239;-68
2023/06/25 10:59:48;;;;;;;8.17;4.13;;;26.70;55.50;;;;;;20913980;28;20750;-66
2023/06/25 11:10:00;;;;;;;5.57;3.80;;;26.80;54.90;;;;;;20897196;28;20640;-64
2023/06/25 11:20:02;;;;;;;4.67;4.00;;;26.90;54.30;;;;;;20829471;28;20235;-66
2023/06/25 11:30:07;;;;;;;10.57;4.20;;;27.10;53.80;;;;;;20897894;28;20250;-64
2023/06/25 11:40:20;;;;;;;5.70;3.70;;;27.20;53.40;;;;;;20909274;28;20606;-63
2023/06/25 11:50:26;;;;;;;4.43;3.70;;;27.30;52.90;;;;;;20911382;28;20239;-62
2023/06/25 12:00:28;;;;;;;4.22;3.42;;;27.50;52.40;;;;;;20912644;28;20263;-65
2023/06/25 12:10:30;;;;;;;4.13;3.60;;;27.70;51.60;;;;;;20927274;28;20204;-67
2023/06/25 12:20:31;;;;;;;5.22;4.03;;;28.00;51.10;;;;;;20926884;28;20254;-63
2023/06/25 12:30:33;;;;;;;5.00;3.95;;;28.30;50.80;;;;;;20926408;28;20216;-63
2023/06/25 12:40:35;;;;;;;7.00;3.70;;;28.50;50.50;;;;;;20916680;28;20262;-70
2023/06/25 12:50:37;;;;;;;4.47;4.05;;;28.60;49.90;;;;;;20879086;28;20226;-69
2023/06/25 13:00:38;;;;;;;5.72;3.35;;;28.70;49.60;;;;;;20882800;28;20235;-71
2023/06/25 13:10:58;;;;;;;5.80;3.58;;;28.70;49.20;;;;;;20873032;28;20247;-69
2023/06/25 13:21:00;;;;;;;4.05;3.65;;;28.70;49.50;;;;;;20874503;28;20294;-68
2023/06/25 13:31:05;;;;;;;5.15;3.80;;;28.60;49.00;;;;;;20864668;28;20215;-65
2023/06/25 13:41:06;;;;;;;6.13;3.72;;;28.70;48.80;;;;;;20870691;28;20244;-64
2023/06/25 13:51:08;;;;;;;6.05;3.67;;;28.80;48.70;;;;;;20869912;28;20247;-65
2023/06/25 14:01:10;;;;;;;3.83;3.40;;;29.00;48.20;;;;;;20879875;28;20322;-67
2023/06/25 14:11:12;;;;;;;3.67;3.38;;;29.20;47.30;;;;;;20868039;28;20209;-72
2023/06/25 14:21:14;;;;;;;3.65;3.30;;;29.30;46.80;;;;;;20868661;28;20320;-65
2023/06/25 14:31:20;;;;;;;4.40;3.70;;;30.10;45.70;;;;;;20876742;28;20536;-66
2023/06/25 14:41:22;;;;;;;11.93;5.85;;;31.90;43.50;;;;;;20865484;28;20246;-66
2023/06/25 14:51:24;;;;;;;12.93;6.07;;;31.50;44.30;;;;;;20863790;28;20674;-62
2023/06/25 15:01:25;;;;;;;4.38;3.80;;;31.30;45.90;;;;;;20869109;28;20238;-67
2023/06/25 15:11:27;;;;;;;6.35;3.50;;;31.60;45.30;;;;;;20863548;28;20212;-69
2023/06/25 15:21:29;;;;;;;3.85;3.38;;;32.40;42.90;;;;;;20865203;28;20227;-69
2023/06/25 15:31:30;;;;;;;5.03;3.58;;;33.10;41.30;;;;;;20871611;28;20303;-71
2023/06/25 15:41:33;;;;;;;5.18;4.13;;;32.50;41.60;;;;;;20862617;28;20979;-67
2023/06/25 15:51:35;;;;;;;10.38;5.13;;;32.30;41.60;;;;;;20868556;28;20204;-68
2023/06/25 16:01:36;;;;;;;5.45;3.88;;;33.80;41.00;;;;;;20871397;28;20691;-72
2023/06/25 16:11:38;;;;;;;6.00;3.50;;;33.80;40.10;;;;;;20854531;28;20205;-72
2023/06/25 16:21:40;;;;;;;5.38;3.90;;;36.60;37.20;;;;;;20833046;28;20323;-65
2023/06/25 16:31:42;;;;;;;7.00;4.05;;;39.90;34.20;;;;;;20826326;28;20233;-62
2023/06/25 16:41:43;;;;;;;5.43;4.07;;;38.50;35.20;;;;;;20845961;28;20715;-63
2023/06/25 16:51:45;;;;;;;7.45;4.45;;;34.70;38.90;;;;;;20913086;28;20203;-63
2023/06/25 17:01:47;;;;;;;4.95;3.80;;;34.10;40.20;;;;;;20922923;28;20661;-62
2023/06/25 17:11:49;;;;;;;7.60;4.35;;;33.60;39.80;;;;;;20920688;28;20286;-63
2023/06/25 17:21:51;;;;;;;3.97;3.58;;;33.80;39.30;;;;;;20919968;28;20702;-66
2023/06/25 17:31:53;;;;;;;15.93;3.90;;;36.00;37.40;;;;;;20919534;28;20204;-68
2023/06/25 17:41:54;;;;;;;3.40;3.10;;;36.40;36.40;;;;;;20918185;28;20331;-68
2023/06/25 17:51:57;;;;;;;3.78;3.47;;;37.90;34.20;;;;;;20917367;28;20235;-66
2023/06/25 18:01:59;;;;;;;4.10;3.75;;;37.40;33.70;;;;;;20914537;28;20236;-72
2023/06/25 18:12:01;;;;;;;4.20;3.80;;;35.90;35.00;;;;;;20916048;28;20228;-70
2023/06/25 18:22:03;;;;;;;4.53;4.10;;;33.80;36.80;;;;;;20917531;28;20234;-69
2023/06/25 18:32:05;;;;;;;8.52;4.38;;;32.30;39.20;;;;;;20914732;28;20550;-72
2023/06/25 18:42:07;;;;;;;5.75;4.22;;;31.00;41.30;;;;;;20896860;28;20613;-66
2023/06/25 18:52:09;;;;;;;5.30;4.40;;;30.20;43.00;;;;;;20870412;28;20296;-65
2023/06/25 19:02:11;;;;;;;5.53;4.50;;;29.50;43.70;;;;;;20873612;28;20335;-70
2023/06/25 19:12:12;;;;;;;5.50;4.53;;;29.00;45.30;;;;;;20867484;28;20230;-66
2023/06/25 19:22:14;;;;;;;6.83;4.50;;;28.50;46.80;;;;;;20874113;28;20240;-68
2023/06/25 19:32:16;;;;;;;5.00;4.25;;;28.00;48.50;;;;;;20863695;28;20209;-67
2023/06/25 19:42:18;;;;;;;7.70;4.60;;;27.60;49.30;;;;;;20862360;28;20248;-71
2023/06/25 19:52:20;;;;;;;5.20;4.70;;;27.20;51.20;;;;;;20850344;28;20572;-67
2023/06/25 20:02:22;;;;;;;5.33;4.70;;;26.80;52.90;;;;;;20826790;28;20335;-67
2023/06/25 20:12:28;;;;;;;7.10;5.00;;;26.40;54.40;;;;;;20849093;28;20209;-67
2023/06/25 20:22:30;;;;;;;7.17;5.70;;;26.10;55.30;;;;;;20835416;28;20638;-65
2023/06/25 20:32:32;;;;;;;7.13;5.67;;;25.70;56.60;;;;;;20876603;28;20246;-73
2023/06/25 20:42:34;;;;;;;7.43;5.83;;;25.40;58.00;;;;;;20876693;28;20240;-67
2023/06/25 20:52:36;;;;;;;6.33;5.40;;;25.10;59.10;;;;;;20878070;28;20208;-70
2023/06/25 21:02:37;;;;;;;9.77;5.17;;;24.90;60.10;;;;;;20876452;28;20337;-66
2023/06/25 21:12:39;;;;;;;7.43;5.57;;;24.60;61.70;;;;;;20876965;28;20250;-68
2023/06/25 21:22:41;;;;;;;12.03;5.20;;;24.40;63.10;;;;;;20870421;28;20232;-65
2023/06/25 21:32:42;;;;;;;6.83;5.27;;;24.10;64.10;;;;;;20876948;28;20213;-68
2023/06/25 21:42:44;;;;;;;8.57;5.50;;;23.80;65.90;;;;;;20877428;28;20232;-66
2023/06/25 21:52:46;;;;;;;6.83;5.40;;;23.50;68.00;;;;;;20872279;28;20254;-66
2023/06/25 22:02:48;;;;;;;9.40;5.93;;;23.30;69.30;;;;;;20872246;28;20236;-65
2023/06/25 22:12:50;;;;;;;6.90;5.30;;;23.10;70.90;;;;;;20854502;28;20615;-74
2023/06/25 22:22:53;;;;;;;7.97;6.00;;;22.90;72.20;;;;;;20871746;28;20331;-73
2023/06/25 22:32:55;;;;;;;8.80;6.07;;;22.80;73.60;;;;;;20867725;28;20213;-74
2023/06/25 22:42:56;;;;;;;7.47;5.70;;;22.60;75.40;;;;;;20874527;28;20310;-74
2023/06/25 22:52:59;;;;;;;7.33;5.93;;;;;;;;;;20868281;28;20666;-75
2023/06/25 23:03:01;;;;;;;6.70;5.77;;;22.20;79.00;;;;;;20864886;28;20236;-72
2023/06/25 23:13:03;;;;;;;7.27;5.77;;;22.00;80.40;;;;;;20872734;28;20204;-75
2023/06/25 23:23:06;;;;;;;7.63;6.00;;;21.90;81.70;;;;;;20866123;28;20301;-67
2023/06/25 23:33:11;;;;;;;9.73;6.27;;;21.70;83.00;;;;;;20864406;28;20270;-73
2023/06/25 23:43:12;;;;;;;8.53;6.20;;;21.70;84.10;;;;;;20872531;28;20730;-67
2023/06/25 23:53:14;;;;;;;7.40;6.37;;;21.70;85.40;;;;;;20829693;28;20204;-70
